Time;durP1;ratioP1;P1;durP2;ratioP2;P2;SDS_P1;SDS_P2;PMS_P1;PMS_P2;Temp;Humidity;BMP_temperature;BMP_pressure;BME280_temperature;BME280_humidity;BME280_pressure;Samples;Min_cycle;Max_cycle;Signal;HPM_P1;HPM_P2
2023/11/26 00:02:24;;;;;;;;;;;20.80;35.40;;;;;;4978629;28;19981;-47
2023/11/26 00:04:52;;;;;;;;;;;20.80;35.30;;;;;;4977840;28;19981;-52
2023/11/26 00:07:19;;;;;;;;;;;20.80;35.30;;;;;;4978582;28;19926;-53
2023/11/26 00:09:46;;;;;;;;;;;20.80;35.30;;;;;;4989768;28;19930;-46
2023/11/26 00:12:14;;;;;;;;;;;20.80;35.30;;;;;;4980592;28;20017;-53
2023/11/26 00:14:41;;;;;;;;;;;20.80;35.40;;;;;;4989819;28;20036;-48
2023/11/26 00:17:08;;;;;;;;;;;20.80;35.40;;;;;;4986653;28;19977;-52
2023/11/26 00:19:35;;;;;;;;;;;20.80;35.30;;;;;;4997906;28;19932;-48
2023/11/26 00:22:03;;;;;;;;;;;20.80;35.40;;;;;;4978587;28;19981;-50
2023/11/26 00:24:31;;;;;;;;;;;20.80;35.30;;;;;;4978132;28;19935;-51
2023/11/26 00:26:58;;;;;;;;;;;20.80;35.40;;;;;;4978303;28;19969;-46
2023/11/26 00:29:24;;;;;;;;;;;20.80;35.30;;;;;;4977925;28;20418;-48
2023/11/26 00:31:52;;;;;;;;;;;20.80;35.30;;;;;;4978048;28;20384;-46
2023/11/26 00:34:19;;;;;;;;;;;20.80;35.30;;;;;;4997278;28;20017;-50
2023/11/26 00:36:46;;;;;;;;;;;20.80;35.30;;;;;;4997661;28;20368;-47
2023/11/26 00:39:13;;;;;;;;;;;20.80;35.30;;;;;;4997636;28;20359;-49
2023/11/26 00:41:44;;;;;;;;;;;20.80;35.30;;;;;;4997195;28;19972;-50
2023/11/26 00:44:11;;;;;;;;;;;20.80;35.30;;;;;;4997220;28;20358;-56
2023/11/26 00:46:38;;;;;;;;;;;20.80;35.30;;;;;;4979958;28;20275;-46
2023/11/26 00:49:06;;;;;;;;;;;20.80;35.30;;;;;;4977551;28;19926;-45
2023/11/26 00:51:34;;;;;;;;;;;20.80;35.30;;;;;;4977884;28;19926;-50
2023/11/26 00:54:00;;;;;;;;;;;20.80;35.30;;;;;;4977647;28;20462;-52
2023/11/26 00:56:28;;;;;;;;;;;20.80;35.30;;;;;;4977784;28;19926;-47
2023/11/26 00:58:54;;;;;;;;;;;20.80;35.60;;;;;;4977596;28;20028;-47
2023/11/26 01:01:22;;;;;;;;;;;20.80;35.30;;;;;;4977999;28;19926;-47
2023/11/26 01:03:49;;;;;;;;;;;20.80;35.30;;;;;;4977678;28;19934;-49
2023/11/26 01:06:17;;;;;;;;;;;20.80;35.30;;;;;;4977142;28;19962;-50
2023/11/26 01:08:44;;;;;;;;;;;20.80;35.30;;;;;;4980427;28;19929;-48
2023/11/26 01:11:14;;;;;;;;;;;20.80;35.30;;;;;;4996525;28;19930;-48
2023/11/26 01:13:41;;;;;;;;;;;20.80;35.30;;;;;;4985927;28;20394;-48
2023/11/26 01:16:12;;;;;;;;;;;20.80;35.30;;;;;;4977488;28;19926;-47
2023/11/26 01:18:39;;;;;;;;;;;20.80;35.40;;;;;;4977085;28;20371;-49
2023/11/26 01:21:07;;;;;;;;;;;20.80;35.40;;;;;;4977124;28;20384;-53
2023/11/26 01:23:34;;;;;;;;;;;20.80;35.40;;;;;;4977319;28;19934;-54
2023/11/26 01:26:01;;;;;;;;;;;20.80;35.40;;;;;;4976895;28;19926;-52
2023/11/26 01:28:28;;;;;;;;;;;20.80;35.30;;;;;;4977365;28;20269;-53
2023/11/26 01:30:55;;;;;;;;;;;20.80;35.30;;;;;;4976948;28;20380;-52
2023/11/26 01:33:23;;;;;;;;;;;20.80;35.30;;;;;;4976620;28;20372;-52
2023/11/26 01:35:53;;;;;;;;;;;20.80;35.40;;;;;;4977108;28;19926;-51
2023/11/26 01:38:20;;;;;;;;;;;20.80;35.40;;;;;;4990648;28;20020;-53
2023/11/26 01:40:47;;;;;;;;;;;20.80;35.40;;;;;;4995736;28;20513;-52
2023/11/26 01:43:14;;;;;;;;;;;20.80;35.40;;;;;;4996342;28;20346;-53
2023/11/26 01:45:41;;;;;;;;;;;20.80;35.40;;;;;;4996239;28;19961;-50
2023/11/26 01:48:09;;;;;;;;;;;20.80;35.50;;;;;;4996033;28;19926;-46
2023/11/26 01:50:36;;;;;;;;;;;20.80;35.50;;;;;;4995994;28;20380;-51
2023/11/26 01:53:03;;;;;;;;;;;20.70;35.40;;;;;;4996311;28;19961;-51
2023/11/26 01:55:30;;;;;;;;;;;20.80;35.50;;;;;;4995940;28;19934;-51
2023/11/26 01:57:57;;;;;;;;;;;20.80;35.50;;;;;;4995835;28;19969;-46
2023/11/26 02:00:24;;;;;;;;;;;20.80;35.50;;;;;;4994935;28;19925;-53
2023/11/26 02:02:51;;;;;;;;;;;20.80;35.50;;;;;;4995729;28;20024;-52
2023/11/26 02:05:18;;;;;;;;;;;20.80;35.50;;;;;;4995989;28;19929;-53
2023/11/26 02:07:46;;;;;;;;;;;20.80;35.50;;;;;;4995937;28;19948;-48
2023/11/26 02:10:13;;;;;;;;;;;20.80;35.50;;;;;;4981013;28;19926;-52
2023/11/26 02:12:40;;;;;;;;;;;20.80;35.50;;;;;;4959121;28;19966;-52
2023/11/26 02:15:09;;;;;;;;;;;20.80;35.50;;;;;;4976131;28;20451;-50
2023/11/26 02:17:37;;;;;;;;;;;20.80;35.50;;;;;;4976030;28;20273;-49
2023/11/26 02:20:04;;;;;;;;;;;20.80;35.50;;;;;;4975688;28;19926;-49
2023/11/26 02:22:32;;;;;;;;;;;20.80;35.50;;;;;;4976291;28;19932;-53
2023/11/26 02:24:59;;;;;;;;;;;20.80;35.50;;;;;;4975860;28;19926;-52
2023/11/26 02:27:27;;;;;;;;;;;20.80;35.50;;;;;;4976276;28;19930;-48
2023/11/26 02:29:53;;;;;;;;;;;20.80;35.50;;;;;;4976209;28;19969;-52
2023/11/26 02:32:21;;;;;;;;;;;20.80;35.50;;;;;;4975811;28;20390;-50
2023/11/26 02:34:48;;;;;;;;;;;20.80;36.00;;;;;;4976202;28;20273;-47
2023/11/26 02:37:17;;;;;;;;;;;20.80;35.50;;;;;;4976011;28;19926;-51
2023/11/26 02:39:44;;;;;;;;;;;20.80;35.50;;;;;;4975875;28;19930;-51
2023/11/26 02:42:12;;;;;;;;;;;20.80;35.50;;;;;;4975988;28;19932;-52
2023/11/26 02:44:39;;;;;;;;;;;20.80;35.50;;;;;;4975678;28;19926;-46
2023/11/26 02:47:07;;;;;;;;;;;20.80;35.50;;;;;;4975881;28;20344;-52
2023/11/26 02:49:35;;;;;;;;;;;20.80;35.50;;;;;;4975721;28;19965;-51
2023/11/26 02:52:03;;;;;;;;;;;20.80;35.50;;;;;;4975327;28;20013;-53
2023/11/26 02:54:30;;;;;;;;;;;20.80;35.50;;;;;;4975766;28;19926;-48
2023/11/26 02:56:58;;;;;;;;;;;20.80;35.50;;;;;;4974893;28;19969;-52
2023/11/26 02:59:25;;;;;;;;;;;20.80;35.50;;;;;;4975239;28;20042;-52
2023/11/26 03:01:57;;;;;;;;;;;20.80;35.50;;;;;;4975507;28;19930;-48
2023/11/26 03:04:25;;;;;;;;;;;20.80;35.50;;;;;;4975243;28;19926;-53
2023/11/26 03:06:52;;;;;;;;;;;20.80;35.40;;;;;;4975136;28;19926;-54
2023/11/26 03:09:37;;;;;;;;;;;20.70;35.40;;;;;;4959187;28;19994;-52
2023/11/26 03:14:53;;;;;;;;;;;20.80;35.50;;;;;;4975383;28;19926;-52
2023/11/26 03:17:20;;;;;;;;;;;20.70;35.50;;;;;;4974855;28;20310;-48
2023/11/26 03:19:47;;;;;;;;;;;20.70;35.50;;;;;;4975272;28;19930;-50
2023/11/26 03:22:15;;;;;;;;;;;20.70;35.50;;;;;;4974974;28;19969;-52
2023/11/26 03:24:42;;;;;;;;;;;20.70;35.60;;;;;;4975422;28;19926;-51
2023/11/26 03:27:12;;;;;;;;;;;20.70;35.60;;;;;;4975032;28;19926;-52
2023/11/26 03:29:40;;;;;;;;;;;20.70;35.60;;;;;;4975269;28;20328;-50
2023/11/26 03:32:07;;;;;;;;;;;20.70;35.60;;;;;;4974128;28;20400;-51
2023/11/26 03:34:34;;;;;;;;;;;20.70;35.60;;;;;;4974904;28;19961;-52
2023/11/26 03:37:01;;;;;;;;;;;20.70;35.60;;;;;;4974972;28;19927;-51
2023/11/26 03:39:30;;;;;;;;;;;20.70;35.60;;;;;;4974787;28;19930;-54
2023/11/26 03:41:57;;;;;;;;;;;20.70;35.60;;;;;;4974723;28;19969;-48
2023/11/26 03:44:26;;;;;;;;;;;20.70;35.60;;;;;;4974719;28;20443;-51
2023/11/26 03:46:53;;;;;;;;;;;20.70;35.60;;;;;;4974665;28;19932;-50
2023/11/26 03:49:20;;;;;;;;;;;20.70;35.60;;;;;;4974721;28;19996;-49
2023/11/26 03:51:49;;;;;;;;;;;20.70;35.60;;;;;;4974974;28;19926;-52
2023/11/26 03:54:16;;;;;;;;;;;20.70;35.60;;;;;;4974944;28;19930;-50
2023/11/26 03:56:43;;;;;;;;;;;20.70;35.60;;;;;;4974752;28;20037;-50
2023/11/26 03:59:11;;;;;;;;;;;20.70;35.60;;;;;;4957871;28;20375;-50
2023/11/26 04:01:38;;;;;;;;;;;20.70;35.60;;;;;;4974822;28;19930;-53
2023/11/26 04:04:05;;;;;;;;;;;20.80;35.60;;;;;;4974810;28;20288;-49
2023/11/26 04:06:32;;;;;;;;;;;20.70;35.60;;;;;;4974503;28;19926;-51
2023/11/26 04:08:59;;;;;;;;;;;20.80;35.60;;;;;;4979662;28;20020;-52
2023/11/26 04:11:26;;;;;;;;;;;20.70;35.60;;;;;;4994067;28;20323;-52
2023/11/26 04:13:53;;;;;;;;;;;20.70;35.60;;;;;;4993778;28;20253;-53
2023/11/26 04:16:20;;;;;;;;;;;20.70;35.60;;;;;;4994108;28;20298;-49
2023/11/26 04:18:47;;;;;;;;;;;20.80;35.60;;;;;;4994049;28;20252;-49
2023/11/26 04:21:14;;;;;;;;;;;20.70;35.60;;;;;;4993508;28;19969;-53
2023/11/26 04:23:41;;;;;;;;;;;20.70;35.60;;;;;;4993766;28;19972;-52
2023/11/26 04:26:09;;;;;;;;;;;20.70;35.60;;;;;;4994043;28;19930;-50
2023/11/26 04:28:37;;;;;;;;;;;20.70;35.60;;;;;;4993389;28;19926;-52
2023/11/26 04:31:04;;;;;;;;;;;20.70;35.60;;;;;;4993483;28;20025;-52
2023/11/26 04:33:31;;;;;;;;;;;20.70;35.60;;;;;;4993876;28;19930;-52
2023/11/26 04:35:58;;;;;;;;;;;20.70;35.60;;;;;;4993938;28;19930;-51
2023/11/26 04:38:26;;;;;;;;;;;20.70;35.60;;;;;;4993572;28;20387;-52
2023/11/26 04:40:53;;;;;;;;;;;20.70;35.40;;;;;;4993504;28;19981;-51
2023/11/26 04:43:21;;;;;;;;;;;20.70;35.30;;;;;;4994253;28;19925;-52
2023/11/26 04:45:48;;;;;;;;;;;20.80;35.20;;;;;;4997069;28;20383;-53
2023/11/26 04:48:15;;;;;;;;;;;20.80;35.00;;;;;;4997192;28;19926;-53
2023/11/26 04:50:42;;;;;;;;;;;20.80;34.90;;;;;;4997150;28;19933;-52
2023/11/26 04:53:09;;;;;;;;;;;20.80;34.90;;;;;;4997307;28;20335;-52
2023/11/26 04:55:37;;;;;;;;;;;20.80;35.00;;;;;;4979857;28;20306;-50
2023/11/26 04:58:03;;;;;;;;;;;20.80;35.10;;;;;;4996959;28;20390;-50
2023/11/26 05:00:30;;;;;;;;;;;20.70;35.10;;;;;;4996872;28;19965;-51
2023/11/26 05:02:57;;;;;;;;;;;20.70;35.10;;;;;;4997027;28;20024;-52
2023/11/26 05:05:25;;;;;;;;;;;20.70;35.10;;;;;;4986109;28;19927;-50
2023/11/26 05:07:52;;;;;;;;;;;20.70;35.10;;;;;;4995491;28;19948;-49
2023/11/26 05:10:19;;;;;;;;;;;20.80;35.10;;;;;;4991612;28;20362;-51
2023/11/26 05:12:47;;;;;;;;;;;20.80;35.00;;;;;;4977698;28;20020;-49
2023/11/26 05:15:14;;;;;;;;;;;20.80;35.00;;;;;;4977027;28;19966;-52
2023/11/26 05:17:41;;;;;;;;;;;20.80;34.90;;;;;;4977505;28;19993;-53
2023/11/26 05:20:13;;;;;;;;;;;20.80;34.90;;;;;;4976986;28;19930;-50
2023/11/26 05:22:41;;;;;;;;;;;20.80;34.80;;;;;;4983545;28;19941;-51
2023/11/26 05:25:08;;;;;;;;;;;20.80;34.80;;;;;;4996500;28;20020;-53
2023/11/26 05:27:35;;;;;;;;;;;20.80;34.80;;;;;;4996561;28;19926;-52
2023/11/26 05:30:03;;;;;;;;;;;20.80;34.80;;;;;;4996451;28;19976;-51
2023/11/26 05:32:30;;;;;;;;;;;20.80;34.70;;;;;;4995246;28;20446;-47
2023/11/26 05:34:58;;;;;;;;;;;20.80;34.70;;;;;;4996416;28;20451;-53
2023/11/26 05:37:25;;;;;;;;;;;20.80;34.70;;;;;;4996221;28;19968;-47
2023/11/26 05:39:52;;;;;;;;;;;20.80;34.70;;;;;;4996195;28;19926;-47
2023/11/26 05:42:19;;;;;;;;;;;20.90;34.60;;;;;;4996230;28;19957;-52
2023/11/26 05:44:46;;;;;;;;;;;20.90;34.60;;;;;;4996398;28;20303;-47
2023/11/26 05:47:13;;;;;;;;;;;20.90;34.60;;;;;;4996044;28;20028;-47
2023/11/26 05:49:40;;;;;;;;;;;20.90;34.60;;;;;;4996081;28;19926;-46
2023/11/26 05:52:07;;;;;;;;;;;20.90;34.60;;;;;;4995733;28;19981;-50
2023/11/26 05:54:34;;;;;;;;;;;20.90;34.50;;;;;;4995791;28;19977;-46
2023/11/26 05:57:01;;;;;;;;;;;20.90;34.50;;;;;;4995709;28;20121;-49
2023/11/26 05:59:28;;;;;;;;;;;20.90;34.50;;;;;;4987422;28;20283;-47
2023/11/26 06:01:55;;;;;;;;;;;20.90;34.50;;;;;;4976448;28;19981;-47
2023/11/26 06:04:22;;;;;;;;;;;20.90;34.40;;;;;;4976063;28;19926;-46
2023/11/26 06:06:50;;;;;;;;;;;21.00;34.50;;;;;;4976364;28;20364;-47
2023/11/26 06:09:17;;;;;;;;;;;20.90;34.40;;;;;;4976081;28;19978;-47
2023/11/26 06:11:44;;;;;;;;;;;20.90;34.30;;;;;;4976483;28;20257;-46
2023/11/26 06:14:11;;;;;;;;;;;21.00;34.30;;;;;;4976750;28;20338;-46
2023/11/26 06:16:40;;;;;;;;;;;21.00;34.30;;;;;;4975903;28;19930;-46
2023/11/26 06:19:07;;;;;;;;;;;21.00;34.30;;;;;;4973112;28;19926;-46
2023/11/26 06:21:34;;;;;;;;;;;21.00;34.20;;;;;;4975961;28;20351;-46
2023/11/26 06:24:02;;;;;;;;;;;21.00;34.20;;;;;;4976322;28;19933;-48
2023/11/26 06:26:30;;;;;;;;;;;21.00;34.20;;;;;;4975891;28;19927;-47
2023/11/26 06:29:00;;;;;;;;;;;21.00;34.20;;;;;;4975981;28;19972;-48
2023/11/26 06:31:29;;;;;;;;;;;21.00;34.20;;;;;;4976037;28;19973;-52
2023/11/26 06:33:57;;;;;;;;;;;21.00;34.20;;;;;;4975864;28;19950;-53
2023/11/26 06:36:24;;;;;;;;;;;21.10;34.20;;;;;;4976068;28;20028;-55
2023/11/26 06:38:52;;;;;;;;;;;21.10;34.20;;;;;;4975926;28;20339;-54
2023/11/26 06:41:23;;;;;;;;;;;21.10;34.10;;;;;;4975517;28;20376;-53
2023/11/26 06:43:54;;;;;;;;;;;21.10;34.10;;;;;;4975963;28;19926;-53
2023/11/26 06:46:22;;;;;;;;;;;21.10;34.10;;;;;;4975860;28;19973;-48
2023/11/26 06:48:50;;;;;;;;;;;21.10;34.10;;;;;;4974362;28;20418;-47
2023/11/26 06:51:20;;;;;;;;;;;21.20;34.10;;;;;;4975598;28;19927;-50
2023/11/26 06:53:47;;;;;;;;;;;21.10;34.00;;;;;;4975840;28;20319;-47
2023/11/26 06:56:15;;;;;;;;;;;21.20;34.00;;;;;;4975172;28;20287;-49
2023/11/26 06:58:43;;;;;;;;;;;21.20;34.00;;;;;;4978030;28;19926;-48
2023/11/26 07:01:11;;;;;;;;;;;21.20;34.00;;;;;;4993608;28;19926;-53
2023/11/26 07:03:39;;;;;;;;;;;21.20;33.90;;;;;;4977480;28;19930;-53
2023/11/26 07:06:07;;;;;;;;;;;21.30;33.90;;;;;;4994431;28;20016;-53
2023/11/26 07:08:36;;;;;;;;;;;21.30;33.90;;;;;;4995124;28;19925;-48
2023/11/26 07:11:07;;;;;;;;;;;21.30;33.90;;;;;;4994557;28;19968;-52
2023/11/26 07:13:34;;;;;;;;;;;21.30;33.90;;;;;;4994899;28;20283;-51
2023/11/26 07:16:01;;;;;;;;;;;21.30;33.80;;;;;;4976937;28;19926;-49
2023/11/26 07:18:28;;;;;;;;;;;21.30;33.90;;;;;;4975299;28;19930;-47
2023/11/26 07:20:55;;;;;;;;;;;21.40;33.80;;;;;;4974987;28;19927;-50
2023/11/26 07:23:22;;;;;;;;;;;21.40;33.80;;;;;;4975247;28;20280;-48
2023/11/26 07:25:49;;;;;;;;;;;21.40;33.80;;;;;;4971819;28;20276;-47
2023/11/26 07:28:16;;;;;;;;;;;21.40;33.80;;;;;;4972350;28;20050;-56
2023/11/26 07:30:43;;;;;;;;;;;21.40;33.80;;;;;;4971902;28;19926;-47
2023/11/26 07:33:10;;;;;;;;;;;21.40;33.80;;;;;;4956173;28;19926;-51
2023/11/26 07:35:38;;;;;;;;;;;21.40;33.70;;;;;;4973997;28;20335;-53
2023/11/26 07:38:06;;;;;;;;;;;21.40;33.70;;;;;;4974294;28;20012;-47
2023/11/26 07:40:33;;;;;;;;;;;21.40;33.70;;;;;;4974735;28;19933;-47
2023/11/26 07:43:00;;;;;;;;;;;21.50;33.70;;;;;;4973210;28;20328;-47
2023/11/26 07:45:28;;;;;;;;;;;21.50;33.70;;;;;;4973289;28;19954;-50
2023/11/26 07:47:55;;;;;;;;;;;21.50;34.20;;;;;;4974472;28;19933;-48
2023/11/26 07:50:22;;;;;;;;;;;21.50;33.60;;;;;;4971371;28;19929;-47
2023/11/26 07:52:49;;;;;;;;;;;21.50;33.50;;;;;;4973768;28;19953;-49
2023/11/26 07:55:16;;;;;;;;;;;21.60;33.50;;;;;;4973477;28;20351;-48
2023/11/26 07:57:44;;;;;;;;;;;21.60;33.50;;;;;;4973259;28;20012;-47
2023/11/26 08:00:13;;;;;;;;;;;21.60;33.50;;;;;;4972029;28;19933;-47
2023/11/26 08:02:40;;;;;;;;;;;21.60;33.40;;;;;;4970052;28;19926;-49
2023/11/26 08:05:08;;;;;;;;;;;21.70;33.40;;;;;;4970233;28;19926;-49
2023/11/26 08:07:36;;;;;;;;;;;21.70;33.40;;;;;;4970525;28;20380;-49
2023/11/26 08:10:17;;;;;;;;;;;21.70;33.30;;;;;;4972868;28;19926;-49
2023/11/26 08:12:50;;;;;;;;;;;21.70;33.30;;;;;;4972497;28;20265;-48
2023/11/26 08:15:19;;;;;;;;;;;21.70;33.30;;;;;;4973096;28;19973;-55
2023/11/26 08:17:50;;;;;;;;;;;21.70;33.30;;;;;;4974643;28;19978;-54
2023/11/26 08:20:18;;;;;;;;;;;21.80;33.30;;;;;;4976463;28;19941;-53
2023/11/26 08:22:46;;;;;;;;;;;21.80;33.20;;;;;;4976364;28;19926;-53
2023/11/26 08:25:23;;;;;;;;;;;21.80;33.20;;;;;;4975927;28;20018;-53
2023/11/26 08:27:51;;;;;;;;;;;21.90;33.20;;;;;;4961058;28;19927;-50
2023/11/26 08:30:30;;;;;;;;;;;21.90;33.10;;;;;;4972684;28;19936;-52
2023/11/26 08:32:58;;;;;;;;;;;21.90;33.10;;;;;;4975862;28;19933;-54
2023/11/26 08:35:28;;;;;;;;;;;21.90;33.00;;;;;;4978055;28;20331;-54
2023/11/26 08:37:56;;;;;;;;;;;21.90;33.00;;;;;;4976815;28;19930;-52
2023/11/26 08:40:23;;;;;;;;;;;21.90;33.00;;;;;;4977861;28;19968;-54
2023/11/26 08:42:52;;;;;;;;;;;21.90;32.90;;;;;;4976361;28;20012;-50
2023/11/26 08:45:19;;;;;;;;;;;22.00;32.90;;;;;;4977802;28;20137;-54
2023/11/26 08:47:47;;;;;;;;;;;22.00;32.90;;;;;;4976483;28;19927;-47
2023/11/26 08:50:14;;;;;;;;;;;22.00;32.80;;;;;;4976719;28;19962;-53
2023/11/26 08:52:41;;;;;;;;;;;22.00;32.80;;;;;;4976791;28;20009;-51
2023/11/26 08:55:09;;;;;;;;;;;22.00;32.80;;;;;;4975341;28;19926;-50
2023/11/26 08:57:40;;;;;;;;;;;22.10;32.80;;;;;;4976071;28;19932;-47
2023/11/26 09:00:09;;;;;;;;;;;22.10;32.60;;;;;;4972512;28;20293;-48
2023/11/26 09:02:38;;;;;;;;;;;22.10;32.60;;;;;;4976404;28;19933;-49
2023/11/26 09:05:08;;;;;;;;;;;22.10;32.60;;;;;;4975974;28;20323;-47
2023/11/26 09:07:36;;;;;;;;;;;22.10;32.50;;;;;;4977348;28;19926;-48
2023/11/26 09:10:03;;;;;;;;;;;22.10;32.40;;;;;;4975573;28;20025;-49
2023/11/26 09:12:30;;;;;;;;;;;22.00;32.40;;;;;;4976962;28;19926;-51
2023/11/26 09:14:59;;;;;;;;;;;22.10;32.40;;;;;;4976812;28;19985;-48
2023/11/26 09:17:26;;;;;;;;;;;22.10;32.40;;;;;;4976435;28;19930;-48
2023/11/26 09:19:53;;;;;;;;;;;22.00;32.30;;;;;;4977074;28;20443;-47
2023/11/26 09:22:21;;;;;;;;;;;22.10;32.30;;;;;;4977196;28;19976;-47
2023/11/26 09:24:48;;;;;;;;;;;22.10;32.30;;;;;;4977488;28;19958;-48
2023/11/26 09:27:15;;;;;;;;;;;22.10;32.30;;;;;;4977241;28;20339;-47
2023/11/26 09:29:42;;;;;;;;;;;22.10;32.20;;;;;;4976396;28;19926;-48
2023/11/26 09:32:10;;;;;;;;;;;22.10;32.10;;;;;;4976768;28;20024;-48
2023/11/26 09:34:37;;;;;;;;;;;22.10;32.10;;;;;;4976824;28;19926;-50
2023/11/26 09:37:04;;;;;;;;;;;22.10;32.00;;;;;;4977262;28;20045;-47
2023/11/26 09:39:35;;;;;;;;;;;22.10;32.10;;;;;;4976961;28;19930;-47
2023/11/26 09:42:03;;;;;;;;;;;22.10;32.00;;;;;;4976752;28;20409;-47
2023/11/26 09:44:30;;;;;;;;;;;22.20;32.00;;;;;;4976644;28;19961;-47
2023/11/26 09:46:57;;;;;;;;;;;22.10;31.90;;;;;;4977039;28;19926;-48
2023/11/26 09:49:25;;;;;;;;;;;22.20;31.90;;;;;;4976634;28;19926;-47
2023/11/26 09:51:54;;;;;;;;;;;22.20;31.90;;;;;;4976895;28;19926;-47
2023/11/26 09:54:22;;;;;;;;;;;22.20;31.80;;;;;;4976538;28;20434;-47
2023/11/26 09:56:58;;;;;;;;;;;22.20;31.70;;;;;;4976736;28;19929;-51
2023/11/26 09:59:27;;;;;;;;;;;22.20;31.70;;;;;;4980763;28;19926;-52
2023/11/26 10:01:54;;;;;;;;;;;22.20;31.60;;;;;;4976613;28;19926;-50
2023/11/26 10:04:21;;;;;;;;;;;22.30;31.60;;;;;;4976564;28;19933;-54
2023/11/26 10:06:49;;;;;;;;;;;22.30;31.50;;;;;;4976397;28;20017;-55
2023/11/26 10:09:18;;;;;;;;;;;22.30;31.50;;;;;;4976211;28;20438;-54
2023/11/26 10:11:45;;;;;;;;;;;22.30;31.40;;;;;;4976559;28;20020;-53
2023/11/26 10:14:18;;;;;;;;;;;22.30;31.40;;;;;;4976751;28;19926;-54
2023/11/26 10:16:45;;;;;;;;;;;22.30;31.30;;;;;;4976572;28;19926;-52
2023/11/26 10:19:26;;;;;;;;;;;22.30;31.20;;;;;;4976192;28;20295;-50
2023/11/26 10:21:55;;;;;;;;;;;22.30;31.10;;;;;;4976389;28;19926;-54
2023/11/26 10:24:23;;;;;;;;;;;22.30;31.00;;;;;;4975972;28;19926;-54
2023/11/26 10:26:52;;;;;;;;;;;22.30;31.00;;;;;;4976238;28;19930;-54
2023/11/26 10:29:21;;;;;;;;;;;22.30;31.00;;;;;;4959184;28;19985;-48
2023/11/26 10:32:06;;;;;;;;;;;22.40;30.90;;;;;;4975803;28;20431;-54
2023/11/26 10:34:34;;;;;;;;;;;22.40;30.80;;;;;;4976145;28;19926;-53
2023/11/26 10:37:19;;;;;;;;;;;22.40;30.80;;;;;;4976190;28;20355;-49
2023/11/26 10:39:53;;;;;;;;;;;22.30;30.60;;;;;;4975646;28;20438;-53
2023/11/26 10:42:20;;;;;;;;;;;22.40;30.60;;;;;;4975526;28;19930;-51
2023/11/26 10:44:56;;;;;;;;;;;22.30;30.50;;;;;;4974797;28;20412;-55
2023/11/26 10:47:23;;;;;;;;;;;22.30;30.90;;;;;;4975519;28;19976;-53
2023/11/26 10:49:52;;;;;;;;;;;22.40;30.40;;;;;;4975513;28;19926;-47
2023/11/26 10:52:38;;;;;;;;;;;22.40;30.30;;;;;;4975689;28;19930;-48
2023/11/26 10:55:13;;;;;;;;;;;22.30;30.10;;;;;;4975413;28;20344;-51
2023/11/26 10:57:41;;;;;;;;;;;22.40;30.20;;;;;;4975694;28;19977;-48
2023/11/26 11:00:09;;;;;;;;;;;22.30;30.10;;;;;;4989061;28;20446;-49
2023/11/26 11:02:36;;;;;;;;;;;22.30;30.00;;;;;;4995070;28;20374;-48
2023/11/26 11:05:05;;;;;;;;;;;22.30;30.00;;;;;;4994909;28;20268;-48
2023/11/26 11:07:34;;;;;;;;;;;22.30;30.00;;;;;;4994831;28;19933;-49
2023/11/26 11:10:12;;;;;;;;;;;22.30;30.00;;;;;;4986362;28;19926;-47
2023/11/26 11:12:51;;;;;;;;;;;22.30;30.00;;;;;;4975422;28;20008;-47
2023/11/26 11:15:21;;;;;;;;;;;22.40;30.00;;;;;;4974981;28;20364;-47
2023/11/26 11:17:48;;;;;;;;;;;22.40;29.90;;;;;;4975469;28;19926;-47
2023/11/26 11:20:15;;;;;;;;;;;22.40;29.90;;;;;;4974930;28;19930;-49
2023/11/26 11:22:46;;;;;;;;;;;22.40;29.90;;;;;;4974450;28;20287;-46
2023/11/26 11:25:14;;;;;;;;;;;22.40;29.80;;;;;;4975077;28;19926;-49
2023/11/26 11:27:59;;;;;;;;;;;22.30;29.80;;;;;;4974906;28;19932;-52
2023/11/26 11:30:46;;;;;;;;;;;22.30;29.80;;;;;;4975046;28;19980;-46
2023/11/26 11:33:13;;;;;;;;;;;22.30;29.70;;;;;;4960898;28;19927;-47
2023/11/26 11:35:44;;;;;;;;;;;22.30;29.70;;;;;;4974721;28;20016;-46
2023/11/26 11:38:17;;;;;;;;;;;22.30;29.70;;;;;;4975184;28;19990;-47
2023/11/26 11:41:02;;;;;;;;;;;22.40;29.70;;;;;;4974625;28;20403;-51
2023/11/26 11:43:30;;;;;;;;;;;22.40;30.00;;;;;;4974709;28;19926;-46
2023/11/26 11:45:58;;;;;;;;;;;22.40;29.60;;;;;;4974931;28;19959;-49
2023/11/26 11:48:45;;;;;;;;;;;22.50;29.60;;;;;;4974664;28;20347;-46
2023/11/26 11:51:32;;;;;;;;;;;22.50;29.60;;;;;;4973707;28;19989;-49
2023/11/26 11:54:19;;;;;;;;;;;22.50;29.50;;;;;;4973944;28;19933;-55
2023/11/26 11:56:47;;;;;;;;;;;22.50;29.50;;;;;;4973550;28;19931;-53
2023/11/26 11:59:14;;;;;;;;;;;22.50;29.50;;;;;;4981392;28;20013;-53
2023/11/26 12:01:42;;;;;;;;;;;22.50;29.40;;;;;;4994117;28;19932;-52
2023/11/26 12:04:09;;;;;;;;;;;22.50;29.40;;;;;;4978355;28;19927;-52
2023/11/26 12:06:41;;;;;;;;;;;22.50;29.30;;;;;;4974723;28;19926;-52
2023/11/26 12:09:10;;;;;;;;;;;22.50;29.30;;;;;;4974537;28;19930;-51
2023/11/26 12:11:44;;;;;;;;;;;22.50;29.30;;;;;;4974307;28;19973;-46
2023/11/26 12:14:11;;;;;;;;;;;22.50;29.20;;;;;;4974356;28;20371;-53
2023/11/26 12:16:38;;;;;;;;;;;22.50;29.20;;;;;;4974781;28;19930;-49
2023/11/26 12:19:06;;;;;;;;;;;22.50;29.30;;;;;;4974402;28;20020;-53
2023/11/26 12:21:34;;;;;;;;;;;22.50;29.30;;;;;;4972762;28;20295;-48
2023/11/26 12:24:01;;;;;;;;;;;22.50;29.30;;;;;;4969137;28;19936;-46
2023/11/26 12:26:34;;;;;;;;;;;22.50;29.20;;;;;;4973548;28;19996;-48
2023/11/26 12:29:01;;;;;;;;;;;22.50;29.20;;;;;;4971814;28;20427;-49
2023/11/26 12:31:31;;;;;;;;;;;22.50;29.10;;;;;;4956643;28;19926;-52
2023/11/26 12:33:58;;;;;;;;;;;22.50;29.10;;;;;;4972921;28;20295;-48
2023/11/26 12:36:25;;;;;;;;;;;22.50;29.10;;;;;;4974231;28;19926;-50
2023/11/26 12:38:52;;;;;;;;;;;22.50;29.10;;;;;;4973035;28;19958;-48
2023/11/26 12:41:19;;;;;;;;;;;22.50;29.10;;;;;;4972576;28;19926;-51
2023/11/26 12:43:46;;;;;;;;;;;22.50;29.10;;;;;;4972311;28;19926;-48
2023/11/26 12:46:14;;;;;;;;;;;22.50;29.20;;;;;;4972485;28;20281;-46
2023/11/26 12:48:41;;;;;;;;;;;22.50;29.10;;;;;;4973068;28;20057;-49
2023/11/26 12:51:08;;;;;;;;;;;22.50;29.10;;;;;;4972449;28;19932;-47
2023/11/26 12:53:35;;;;;;;;;;;22.50;29.10;;;;;;4967120;28;19926;-49
2023/11/26 12:56:03;;;;;;;;;;;22.50;29.60;;;;;;4964374;28;19933;-46
2023/11/26 12:58:30;;;;;;;;;;;22.50;29.10;;;;;;4968153;28;20348;-47
2023/11/26 13:00:57;;;;;;;;;;;22.50;29.10;;;;;;4971757;28;19926;-46
2023/11/26 13:03:25;;;;;;;;;;;22.50;29.10;;;;;;4973215;28;19926;-49
2023/11/26 13:05:52;;;;;;;;;;;22.50;29.00;;;;;;4959600;28;20384;-48
2023/11/26 13:08:20;;;;;;;;;;;22.50;29.00;;;;;;4974951;28;20398;-47
2023/11/26 13:10:52;;;;;;;;;;;22.50;29.00;;;;;;4974848;28;19926;-50
2023/11/26 13:13:27;;;;;;;;;;;22.50;28.90;;;;;;4973063;28;19926;-47
2023/11/26 13:15:56;;;;;;;;;;;22.60;28.90;;;;;;4977534;28;20363;-48
2023/11/26 13:18:25;;;;;;;;;;;22.60;28.90;;;;;;4976073;28;19934;-46
2023/11/26 13:20:57;;;;;;;;;;;22.60;28.90;;;;;;4975836;28;20275;-51
2023/11/26 13:23:24;;;;;;;;;;;22.60;28.90;;;;;;4975709;28;19930;-47
2023/11/26 13:25:52;;;;;;;;;;;22.60;28.90;;;;;;4977042;28;19934;-53
2023/11/26 13:28:19;;;;;;;;;;;22.60;28.90;;;;;;4958984;28;20453;-47
2023/11/26 13:30:47;;;;;;;;;;;22.60;28.90;;;;;;4974748;28;19927;-48
2023/11/26 13:33:15;;;;;;;;;;;22.60;28.90;;;;;;4975670;28;19930;-52
2023/11/26 13:35:43;;;;;;;;;;;22.60;28.90;;;;;;4961828;28;20905;-52
2023/11/26 13:38:11;;;;;;;;;;;22.50;28.90;;;;;;4989321;28;20256;-47
2023/11/26 13:40:39;;;;;;;;;;;22.60;28.90;;;;;;4974337;28;20338;-47
2023/11/26 13:43:08;;;;;;;;;;;22.60;28.90;;;;;;4972595;28;19981;-53
2023/11/26 13:45:35;;;;;;;;;;;22.60;28.90;;;;;;4976845;28;20016;-52
2023/11/26 13:48:03;;;;;;;;;;;22.60;28.90;;;;;;4974947;28;19926;-53
2023/11/26 13:50:37;;;;;;;;;;;22.50;28.80;;;;;;4976920;28;19926;-53
2023/11/26 13:53:06;;;;;;;;;;;22.50;28.90;;;;;;4976271;28;20372;-53
2023/11/26 13:55:33;;;;;;;;;;;22.50;28.80;;;;;;4959890;28;20295;-52
2023/11/26 13:58:01;;;;;;;;;;;22.50;28.90;;;;;;4975172;28;20331;-53
2023/11/26 14:00:31;;;;;;;;;;;22.50;28.90;;;;;;4981996;28;20009;-52
2023/11/26 14:02:59;;;;;;;;;;;22.50;28.90;;;;;;4976531;28;19933;-52
2023/11/26 14:05:27;;;;;;;;;;;22.50;28.90;;;;;;4976877;28;20354;-46
2023/11/26 14:07:54;;;;;;;;;;;22.50;28.90;;;;;;4976417;28;19926;-49
2023/11/26 14:10:21;;;;;;;;;;;22.40;29.00;;;;;;4975582;28;19930;-53
2023/11/26 14:12:50;;;;;;;;;;;22.50;29.10;;;;;;4957789;28;19974;-50
2023/11/26 14:15:19;;;;;;;;;;;22.40;29.10;;;;;;4974931;28;19926;-46
2023/11/26 14:17:50;;;;;;;;;;;22.40;29.20;;;;;;4975848;28;19933;-53
2023/11/26 14:20:19;;;;;;;;;;;22.40;29.30;;;;;;4976248;28;19926;-52
2023/11/26 14:22:46;;;;;;;;;;;22.40;29.30;;;;;;4976088;28;20410;-51
2023/11/26 14:25:14;;;;;;;;;;;22.40;29.40;;;;;;4975836;28;19965;-52
2023/11/26 14:27:43;;;;;;;;;;;22.40;29.50;;;;;;4958929;28;19973;-46